Arlington, TN (38002)

9:07 AM CDT on July 25, 2016 (GMT -0500)
Salem Road Ranches | | Change Station

Elev 400 ft 35.30 °N, 89.74 °W | Updated 2 seconds ago

Scattered Clouds
Scattered Clouds
81.0 °F
Feels Like 89 °F
N
0.0
Wind Variable Wind from SW
Gusts 2.0 mph

Today
High -- | Low -- °F
--% Chance of Precip.
Yesterday
High -- | Low -- °F
Precip. -- in
Pressure 30.01 in
Visibility 10.0 miles
Clouds Few 2500 ft
Scattered Clouds 25000 ft
Heat Index 89 °F
Dew Point 79 °F
Humidity 94%
Rainfall 0.00 in
Snow Depth Not available.
6:02 AM 8:07 PM
Waning Gibbous, 65% visible
METAR KNQA 251350Z 13005KT 10SM FEW025 SCT250 30/27 A3001
Pressure 30.01 in
Visibility 10.0 miles
Clouds Few 2500 ft
Scattered Clouds 25000 ft
Heat Index 89 °F
Dew Point 79 °F
Humidity 94%
Rainfall 0.00 in
Snow Depth Not available.
6:02 AM 8:07 PM
Waning Gibbous, 65% visible
METAR KNQA 251350Z 13005KT 10SM FEW025 SCT250 30/27 A3001

10-Day Weather Forecast

Almanac

Astronomy

Jul. 25, 2016 Rise Set
Actual Time
Civil Twilight
Nautical Twilight
Astronomical Twilight
Moon
Length of Visible Light
Length of Day
Tomorrow will be .
, % of the Moon is Illuminated

Today's Extremes

State Highs State Lows

Community

WunderPhotos

Upload Photos

1,927,300 photos uploaded!

WunderBlog® & News

Nearby

Air Quality

  Air Quality AQ Index Pollutant
Not available.

Snow Depth

Station Depth Elevation

Earthquake Activity

City Distance Mag. Time & Date
Minimum magnitude displayed is 2.5.

Coastal Water Temperatures

Place Temperature

Stations

Nearby Weather Stations

Station Location Temp. Windchill Dew Point Humidity Wind Precip. Elev Updated Type
                   

Watches & Warnings

There are currently no watches in effect.